sensor_id;sensor_type;location;lat;lon;timestamp;temperature;humidity
54846;DHT22;53889;50.084;8.646;2023-02-01T00:02:09;5.60;99.90
54846;DHT22;53889;50.084;8.646;2023-02-01T00:04:36;5.60;99.90
54846;DHT22;53889;50.084;8.646;2023-02-01T00:07:03;5.60;99.90
54846;DHT22;53889;50.084;8.646;2023-02-01T00:09:29;5.60;99.90
54846;DHT22;53889;50.084;8.646;2023-02-01T00:11:56;5.60;99.90
54846;DHT22;53889;50.084;8.646;2023-02-01T00:14:26;5.60;99.90
54846;DHT22;53889;50.084;8.646;2023-02-01T00:16:53;5.60;99.90
54846;DHT22;53889;50.084;8.646;2023-02-01T00:19:20;5.60;99.90
54846;DHT22;53889;50.084;8.646;2023-02-01T00:21:46;5.60;99.90
54846;DHT22;53889;50.084;8.646;2023-02-01T00:24:13;5.60;99.90
54846;DHT22;53889;50.084;8.646;2023-02-01T00:26:41;6.80;99.90
54846;DHT22;53889;50.084;8.646;2023-02-01T00:29:11;5.70;99.90
54846;DHT22;53889;50.084;8.646;2023-02-01T00:31:40;5.70;99.90
54846;DHT22;53889;50.084;8.646;2023-02-01T00:34:07;5.70;99.90
54846;DHT22;53889;50.084;8.646;2023-02-01T00:36:34;5.70;99.90
54846;DHT22;53889;50.084;8.646;2023-02-01T00:39:00;5.60;99.90
54846;DHT22;53889;50.084;8.646;2023-02-01T00:41:27;5.60;99.90
54846;DHT22;53889;50.084;8.646;2023-02-01T00:43:54;5.70;99.90
54846;DHT22;53889;50.084;8.646;2023-02-01T00:46:21;5.70;99.90
54846;DHT22;53889;50.084;8.646;2023-02-01T00:48:49;5.70;99.90
54846;DHT22;53889;50.084;8.646;2023-02-01T00:51:18;5.60;99.90
54846;DHT22;53889;50.084;8.646;2023-02-01T00:53:45;5.60;99.90
54846;DHT22;53889;50.084;8.646;2023-02-01T00:56:12;5.70;99.90
54846;DHT22;53889;50.084;8.646;2023-02-01T00:58:39;5.70;99.90
54846;DHT22;53889;50.084;8.646;2023-02-01T01:01:09;5.70;99.90
54846;DHT22;53889;50.084;8.646;2023-02-01T01:03:38;5.60;99.90
54846;DHT22;53889;50.084;8.646;2023-02-01T01:06:10;5.60;99.90
54846;DHT22;53889;50.084;8.646;2023-02-01T01:08:38;5.60;99.90
54846;DHT22;53889;50.084;8.646;2023-02-01T01:11:06;5.60;99.90
54846;DHT22;53889;50.084;8.646;2023-02-01T01:13:33;5.70;99.90
54846;DHT22;53889;50.084;8.646;2023-02-01T01:16:00;5.70;99.90
54846;DHT22;53889;50.084;8.646;2023-02-01T01:18:28;5.70;99.90
54846;DHT22;53889;50.084;8.646;2023-02-01T01:20:55;5.70;99.90
54846;DHT22;53889;50.084;8.646;2023-02-01T01:23:23;5.70;99.90
54846;DHT22;53889;50.084;8.646;2023-02-01T01:25:50;5.70;99.90
54846;DHT22;53889;50.084;8.646;2023-02-01T01:28:17;5.70;99.90
54846;DHT22;53889;50.084;8.646;2023-02-01T01:30:43;5.80;99.90
54846;DHT22;53889;50.084;8.646;2023-02-01T01:33:10;5.80;99.90
54846;DHT22;53889;50.084;8.646;2023-02-01T01:35:37;5.80;99.90
54846;DHT22;53889;50.084;8.646;2023-02-01T01:38:04;5.80;99.90
54846;DHT22;53889;50.084;8.646;2023-02-01T01:40:32;5.90;99.90
54846;DHT22;53889;50.084;8.646;2023-02-01T01:42:59;5.90;99.90
54846;DHT22;53889;50.084;8.646;2023-02-01T01:45:28;5.90;99.90
54846;DHT22;53889;50.084;8.646;2023-02-01T01:47:56;5.90;99.90
54846;DHT22;53889;50.084;8.646;2023-02-01T01:50:28;5.90;99.90
54846;DHT22;53889;50.084;8.646;2023-02-01T01:52:57;5.90;99.90
54846;DHT22;53889;50.084;8.646;2023-02-01T01:55:26;5.90;99.90
54846;DHT22;53889;50.084;8.646;2023-02-01T01:57:58;6.00;99.90
54846;DHT22;53889;50.084;8.646;2023-02-01T02:00:26;5.90;99.90
54846;DHT22;53889;50.084;8.646;2023-02-01T02:02:57;5.90;99.90
54846;DHT22;53889;50.084;8.646;2023-02-01T02:05:25;5.80;99.90
54846;DHT22;53889;50.084;8.646;2023-02-01T02:07:57;5.80;99.90
54846;DHT22;53889;50.084;8.646;2023-02-01T02:10:24;5.80;99.90
54846;DHT22;53889;50.084;8.646;2023-02-01T02:13:13;5.80;99.90
54846;DHT22;53889;50.084;8.646;2023-02-01T02:15:45;5.80;99.90
54846;DHT22;53889;50.084;8.646;2023-02-01T02:18:18;5.70;99.90
54846;DHT22;53889;50.084;8.646;2023-02-01T02:21:10;5.70;99.90
54846;DHT22;53889;50.084;8.646;2023-02-01T02:24:14;5.70;99.90
54846;DHT22;53889;50.084;8.646;2023-02-01T02:26:55;5.70;99.90
54846;DHT22;53889;50.084;8.646;2023-02-01T02:29:54;5.70;99.90
54846;DHT22;53889;50.084;8.646;2023-02-01T02:32:48;5.70;99.90
54846;DHT22;53889;50.084;8.646;2023-02-01T02:35:26;5.70;99.90
54846;DHT22;53889;50.084;8.646;2023-02-01T02:37:57;5.60;99.90
54846;DHT22;53889;50.084;8.646;2023-02-01T02:40:32;5.70;99.90
54846;DHT22;53889;50.084;8.646;2023-02-01T02:43:05;5.70;99.90
54846;DHT22;53889;50.084;8.646;2023-02-01T02:45:55;5.70;99.90
54846;DHT22;53889;50.084;8.646;2023-02-01T02:49:01;5.70;99.90
54846;DHT22;53889;50.084;8.646;2023-02-01T02:51:37;5.80;99.90
54846;DHT22;53889;50.084;8.646;2023-02-01T02:54:24;5.80;99.90
54846;DHT22;53889;50.084;8.646;2023-02-01T02:57:12;5.80;99.90
54846;DHT22;53889;50.084;8.646;2023-02-01T02:59:59;5.80;99.90
54846;DHT22;53889;50.084;8.646;2023-02-01T03:02:45;5.80;99.90
54846;DHT22;53889;50.084;8.646;2023-02-01T03:05:33;5.80;99.90
54846;DHT22;53889;50.084;8.646;2023-02-01T03:08:04;5.80;99.90
54846;DHT22;53889;50.084;8.646;2023-02-01T03:10:40;5.90;99.90
54846;DHT22;53889;50.084;8.646;2023-02-01T03:13:12;5.80;99.90
54846;DHT22;53889;50.084;8.646;2023-02-01T03:15:42;5.80;99.90
54846;DHT22;53889;50.084;8.646;2023-02-01T03:18:13;5.80;99.90
54846;DHT22;53889;50.084;8.646;2023-02-01T03:20:47;6.20;99.90
54846;DHT22;53889;50.084;8.646;2023-02-01T03:23:19;5.80;99.90
54846;DHT22;53889;50.084;8.646;2023-02-01T03:25:49;5.80;99.90
54846;DHT22;53889;50.084;8.646;2023-02-01T03:28:18;5.80;99.90
54846;DHT22;53889;50.084;8.646;2023-02-01T03:30:48;5.80;99.90
54846;DHT22;53889;50.084;8.646;2023-02-01T03:33:17;5.80;99.90
54846;DHT22;53889;50.084;8.646;2023-02-01T03:35:57;5.80;99.90
54846;DHT22;53889;50.084;8.646;2023-02-01T03:38:30;5.80;99.90
54846;DHT22;53889;50.084;8.646;2023-02-01T03:41:03;5.80;99.90
54846;DHT22;53889;50.084;8.646;2023-02-01T03:43:42;5.80;99.90
54846;DHT22;53889;50.084;8.646;2023-02-01T03:46:14;5.80;99.90
54846;DHT22;53889;50.084;8.646;2023-02-01T03:48:42;5.80;99.90
54846;DHT22;53889;50.084;8.646;2023-02-01T03:51:10;5.80;99.90
54846;DHT22;53889;50.084;8.646;2023-02-01T03:53:40;5.80;99.90
54846;DHT22;53889;50.084;8.646;2023-02-01T03:56:08;5.90;99.90
54846;DHT22;53889;50.084;8.646;2023-02-01T03:58:37;5.90;99.90
54846;DHT22;53889;50.084;8.646;2023-02-01T04:01:04;5.80;99.90
54846;DHT22;53889;50.084;8.646;2023-02-01T04:03:35;5.90;99.90
54846;DHT22;53889;50.084;8.646;2023-02-01T04:06:01;5.90;99.90
54846;DHT22;53889;50.084;8.646;2023-02-01T04:08:28;5.90;99.90
54846;DHT22;53889;50.084;8.646;2023-02-01T04:10:57;5.90;99.90
54846;DHT22;53889;50.084;8.646;2023-02-01T04:13:24;5.80;99.90
54846;DHT22;53889;50.084;8.646;2023-02-01T04:15:50;5.90;99.90
54846;DHT22;53889;50.084;8.646;2023-02-01T04:18:17;5.90;99.90
54846;DHT22;53889;50.084;8.646;2023-02-01T04:20:43;6.00;99.90
54846;DHT22;53889;50.084;8.646;2023-02-01T04:23:11;6.00;99.90
54846;DHT22;53889;50.084;8.646;2023-02-01T04:25:38;6.00;99.90
54846;DHT22;53889;50.084;8.646;2023-02-01T04:28:06;5.90;99.90
54846;DHT22;53889;50.084;8.646;2023-02-01T04:30:33;6.00;99.90
54846;DHT22;53889;50.084;8.646;2023-02-01T04:32:59;5.90;99.90
54846;DHT22;53889;50.084;8.646;2023-02-01T04:35:29;6.00;99.90
54846;DHT22;53889;50.084;8.646;2023-02-01T04:37:56;6.40;99.90
54846;DHT22;53889;50.084;8.646;2023-02-01T04:40:22;6.00;99.90
54846;DHT22;53889;50.084;8.646;2023-02-01T04:42:49;6.00;99.90
54846;DHT22;53889;50.084;8.646;2023-02-01T04:45:17;6.00;99.90
54846;DHT22;53889;50.084;8.646;2023-02-01T04:47:44;6.00;99.90
54846;DHT22;53889;50.084;8.646;2023-02-01T04:50:11;6.00;99.90
54846;DHT22;53889;50.084;8.646;2023-02-01T04:52:37;6.00;99.90
54846;DHT22;53889;50.084;8.646;2023-02-01T04:55:05;6.00;99.90
54846;DHT22;53889;50.084;8.646;2023-02-01T04:57:32;6.00;99.90
54846;DHT22;53889;50.084;8.646;2023-02-01T04:59:58;6.00;99.90
54846;DHT22;53889;50.084;8.646;2023-02-01T05:02:26;6.00;99.90
54846;DHT22;53889;50.084;8.646;2023-02-01T05:04:54;6.00;99.90
54846;DHT22;53889;50.084;8.646;2023-02-01T05:07:21;5.90;99.90
54846;DHT22;53889;50.084;8.646;2023-02-01T05:09:47;5.90;99.90
54846;DHT22;53889;50.084;8.646;2023-02-01T05:12:14;5.90;99.90
54846;DHT22;53889;50.084;8.646;2023-02-01T05:14:58;5.90;99.90
54846;DHT22;53889;50.084;8.646;2023-02-01T05:17:27;5.80;99.90
54846;DHT22;53889;50.084;8.646;2023-02-01T05:19:53;5.80;99.90
54846;DHT22;53889;50.084;8.646;2023-02-01T05:22:20;5.80;99.90
54846;DHT22;53889;50.084;8.646;2023-02-01T05:24:47;5.80;99.90
54846;DHT22;53889;50.084;8.646;2023-02-01T05:27:13;5.80;99.90
54846;DHT22;53889;50.084;8.646;2023-02-01T05:29:40;5.80;99.90
54846;DHT22;53889;50.084;8.646;2023-02-01T05:32:09;5.90;99.90
54846;DHT22;53889;50.084;8.646;2023-02-01T05:34:37;5.90;99.90
54846;DHT22;53889;50.084;8.646;2023-02-01T05:37:04;6.10;99.90
54846;DHT22;53889;50.084;8.646;2023-02-01T05:39:31;6.00;99.90
54846;DHT22;53889;50.084;8.646;2023-02-01T05:41:57;6.00;99.90
54846;DHT22;53889;50.084;8.646;2023-02-01T05:44:24;5.90;99.90
54846;DHT22;53889;50.084;8.646;2023-02-01T05:46:51;6.00;99.90
54846;DHT22;53889;50.084;8.646;2023-02-01T05:49:18;6.00;99.90
54846;DHT22;53889;50.084;8.646;2023-02-01T05:51:46;6.00;99.90
54846;DHT22;53889;50.084;8.646;2023-02-01T05:54:13;6.10;99.90
54846;DHT22;53889;50.084;8.646;2023-02-01T05:56:39;6.10;99.90
54846;DHT22;53889;50.084;8.646;2023-02-01T05:59:07;6.10;99.90
54846;DHT22;53889;50.084;8.646;2023-02-01T06:01:33;6.00;99.90
54846;DHT22;53889;50.084;8.646;2023-02-01T06:04:00;6.00;99.90
54846;DHT22;53889;50.084;8.646;2023-02-01T06:06:27;6.10;99.90
54846;DHT22;53889;50.084;8.646;2023-02-01T06:08:55;6.00;99.90
54846;DHT22;53889;50.084;8.646;2023-02-01T06:11:21;6.10;99.90
54846;DHT22;53889;50.084;8.646;2023-02-01T06:13:48;6.00;99.90
54846;DHT22;53889;50.084;8.646;2023-02-01T06:16:15;5.90;99.90
54846;DHT22;53889;50.084;8.646;2023-02-01T06:18:41;5.90;99.90
54846;DHT22;53889;50.084;8.646;2023-02-01T06:21:08;5.00;99.90
54846;DHT22;53889;50.084;8.646;2023-02-01T06:23:35;5.80;99.90
54846;DHT22;53889;50.084;8.646;2023-02-01T06:26:05;5.80;99.90
54846;DHT22;53889;50.084;8.646;2023-02-01T06:28:33;5.80;99.90
54846;DHT22;53889;50.084;8.646;2023-02-01T06:31:03;5.80;99.90
54846;DHT22;53889;50.084;8.646;2023-02-01T06:33:32;5.80;99.90
54846;DHT22;53889;50.084;8.646;2023-02-01T06:35:59;5.80;99.90
54846;DHT22;53889;50.084;8.646;2023-02-01T06:38:26;5.70;99.90
54846;DHT22;53889;50.084;8.646;2023-02-01T06:40:54;6.20;99.90
54846;DHT22;53889;50.084;8.646;2023-02-01T06:43:22;5.60;99.90
54846;DHT22;53889;50.084;8.646;2023-02-01T06:45:49;5.60;99.90
54846;DHT22;53889;50.084;8.646;2023-02-01T06:48:16;5.60;99.90
54846;DHT22;53889;50.084;8.646;2023-02-01T06:50:43;5.60;99.90
54846;DHT22;53889;50.084;8.646;2023-02-01T06:53:10;5.50;99.90
54846;DHT22;53889;50.084;8.646;2023-02-01T06:55:36;5.50;99.90
54846;DHT22;53889;50.084;8.646;2023-02-01T06:58:03;5.50;99.90
54846;DHT22;53889;50.084;8.646;2023-02-01T07:00:31;5.60;99.90
54846;DHT22;53889;50.084;8.646;2023-02-01T07:02:58;5.40;99.90
54846;DHT22;53889;50.084;8.646;2023-02-01T07:05:25;5.50;99.90
54846;DHT22;53889;50.084;8.646;2023-02-01T07:07:52;5.70;99.90
54846;DHT22;53889;50.084;8.646;2023-02-01T07:10:19;5.40;99.90
54846;DHT22;53889;50.084;8.646;2023-02-01T07:12:46;5.50;99.90
54846;DHT22;53889;50.084;8.646;2023-02-01T07:15:12;5.40;99.90
54846;DHT22;53889;50.084;8.646;2023-02-01T07:17:40;5.50;99.90
54846;DHT22;53889;50.084;8.646;2023-02-01T07:20:08;5.50;99.90
54846;DHT22;53889;50.084;8.646;2023-02-01T07:22:35;5.50;99.90
54846;DHT22;53889;50.084;8.646;2023-02-01T07:25:03;5.50;99.90
54846;DHT22;53889;50.084;8.646;2023-02-01T07:27:29;5.60;99.90
54846;DHT22;53889;50.084;8.646;2023-02-01T07:29:56;5.60;99.90
54846;DHT22;53889;50.084;8.646;2023-02-01T07:32:27;5.60;99.90
54846;DHT22;53889;50.084;8.646;2023-02-01T07:34:55;5.60;99.90
54846;DHT22;53889;50.084;8.646;2023-02-01T07:37:22;5.60;99.90
54846;DHT22;53889;50.084;8.646;2023-02-01T07:39:49;5.60;99.90
54846;DHT22;53889;50.084;8.646;2023-02-01T07:42:16;6.10;99.90
54846;DHT22;53889;50.084;8.646;2023-02-01T07:44:42;5.60;99.90
54846;DHT22;53889;50.084;8.646;2023-02-01T07:47:09;5.70;99.90
54846;DHT22;53889;50.084;8.646;2023-02-01T07:49:36;5.80;99.90
54846;DHT22;53889;50.084;8.646;2023-02-01T07:52:04;5.80;99.90
54846;DHT22;53889;50.084;8.646;2023-02-01T07:54:30;5.90;99.90
54846;DHT22;53889;50.084;8.646;2023-02-01T07:56:57;6.60;99.90
54846;DHT22;53889;50.084;8.646;2023-02-01T07:59:24;6.00;99.90
54846;DHT22;53889;50.084;8.646;2023-02-01T08:01:50;6.10;99.90
54846;DHT22;53889;50.084;8.646;2023-02-01T08:04:16;6.10;99.90
54846;DHT22;53889;50.084;8.646;2023-02-01T08:06:43;6.10;99.90
54846;DHT22;53889;50.084;8.646;2023-02-01T08:09:11;6.70;99.90
54846;DHT22;53889;50.084;8.646;2023-02-01T08:11:38;6.20;99.90
54846;DHT22;53889;50.084;8.646;2023-02-01T08:14:05;6.20;99.90
54846;DHT22;53889;50.084;8.646;2023-02-01T08:16:32;8.20;99.90
54846;DHT22;53889;50.084;8.646;2023-02-01T08:19:00;6.20;99.90
54846;DHT22;53889;50.084;8.646;2023-02-01T08:21:28;6.30;99.90
54846;DHT22;53889;50.084;8.646;2023-02-01T08:24:03;6.20;99.90
54846;DHT22;53889;50.084;8.646;2023-02-01T08:26:31;6.30;99.90
54846;DHT22;53889;50.084;8.646;2023-02-01T08:28:59;6.30;99.90
54846;DHT22;53889;50.084;8.646;2023-02-01T08:31:29;6.40;99.90
54846;DHT22;53889;50.084;8.646;2023-02-01T08:33:57;6.40;99.90
54846;DHT22;53889;50.084;8.646;2023-02-01T08:36:26;6.40;99.90
54846;DHT22;53889;50.084;8.646;2023-02-01T08:38:53;6.40;99.90
54846;DHT22;53889;50.084;8.646;2023-02-01T08:41:22;6.40;99.90
54846;DHT22;53889;50.084;8.646;2023-02-01T08:43:51;6.40;99.90
54846;DHT22;53889;50.084;8.646;2023-02-01T08:46:19;6.40;99.90
54846;DHT22;53889;50.084;8.646;2023-02-01T08:48:46;6.50;99.90
54846;DHT22;53889;50.084;8.646;2023-02-01T08:51:16;6.50;99.90
54846;DHT22;53889;50.084;8.646;2023-02-01T08:53:43;6.40;99.90
54846;DHT22;53889;50.084;8.646;2023-02-01T08:56:12;6.40;99.90
54846;DHT22;53889;50.084;8.646;2023-02-01T08:58:39;6.70;99.90
54846;DHT22;53889;50.084;8.646;2023-02-01T09:01:08;6.40;99.90
54846;DHT22;53889;50.084;8.646;2023-02-01T09:03:35;6.40;99.90
54846;DHT22;53889;50.084;8.646;2023-02-01T09:06:03;6.50;99.90
54846;DHT22;53889;50.084;8.646;2023-02-01T09:08:30;6.50;99.90
54846;DHT22;53889;50.084;8.646;2023-02-01T09:11:01;6.50;99.90
54846;DHT22;53889;50.084;8.646;2023-02-01T09:13:28;6.50;99.90
54846;DHT22;53889;50.084;8.646;2023-02-01T09:15:55;6.50;99.90
54846;DHT22;53889;50.084;8.646;2023-02-01T09:18:23;6.50;99.90
54846;DHT22;53889;50.084;8.646;2023-02-01T09:20:50;6.50;99.90
54846;DHT22;53889;50.084;8.646;2023-02-01T09:23:17;6.60;99.90
54846;DHT22;53889;50.084;8.646;2023-02-01T09:25:45;6.60;99.90
54846;DHT22;53889;50.084;8.646;2023-02-01T09:28:14;6.60;99.90
54846;DHT22;53889;50.084;8.646;2023-02-01T09:30:40;6.60;99.90
54846;DHT22;53889;50.084;8.646;2023-02-01T09:33:07;6.70;99.90
54846;DHT22;53889;50.084;8.646;2023-02-01T09:35:35;6.70;99.90
54846;DHT22;53889;50.084;8.646;2023-02-01T09:38:03;6.70;99.90
54846;DHT22;53889;50.084;8.646;2023-02-01T09:40:30;6.70;99.90
54846;DHT22;53889;50.084;8.646;2023-02-01T09:43:10;6.80;99.90
54846;DHT22;53889;50.084;8.646;2023-02-01T09:45:46;6.70;99.90
54846;DHT22;53889;50.084;8.646;2023-02-01T09:48:18;6.70;99.90
54846;DHT22;53889;50.084;8.646;2023-02-01T09:50:52;6.80;99.90
54846;DHT22;53889;50.084;8.646;2023-02-01T09:53:24;6.80;99.90
54846;DHT22;53889;50.084;8.646;2023-02-01T09:55:57;6.90;99.90
54846;DHT22;53889;50.084;8.646;2023-02-01T09:58:30;6.90;99.90
54846;DHT22;53889;50.084;8.646;2023-02-01T10:01:02;6.90;99.90
54846;DHT22;53889;50.084;8.646;2023-02-01T10:03:31;6.90;99.90
54846;DHT22;53889;50.084;8.646;2023-02-01T10:06:10;6.90;99.90
54846;DHT22;53889;50.084;8.646;2023-02-01T10:08:57;6.90;99.90
54846;DHT22;53889;50.084;8.646;2023-02-01T10:11:35;6.90;99.90
54846;DHT22;53889;50.084;8.646;2023-02-01T10:14:24;7.00;99.90
54846;DHT22;53889;50.084;8.646;2023-02-01T10:17:00;7.00;99.90
54846;DHT22;53889;50.084;8.646;2023-02-01T10:19:38;7.00;99.90
54846;DHT22;53889;50.084;8.646;2023-02-01T10:22:09;7.00;99.90
54846;DHT22;53889;50.084;8.646;2023-02-01T10:24:40;7.10;99.90
54846;DHT22;53889;50.084;8.646;2023-02-01T10:27:12;7.00;99.90
54846;DHT22;53889;50.084;8.646;2023-02-01T10:29:41;7.10;99.90
54846;DHT22;53889;50.084;8.646;2023-02-01T10:32:13;7.10;99.90
54846;DHT22;53889;50.084;8.646;2023-02-01T10:34:41;7.10;99.90
54846;DHT22;53889;50.084;8.646;2023-02-01T10:37:17;7.10;99.90
54846;DHT22;53889;50.084;8.646;2023-02-01T10:39:46;7.10;99.90
54846;DHT22;53889;50.084;8.646;2023-02-01T10:42:14;7.10;99.90
54846;DHT22;53889;50.084;8.646;2023-02-01T10:44:43;7.10;99.90
54846;DHT22;53889;50.084;8.646;2023-02-01T10:47:13;7.10;99.90
54846;DHT22;53889;50.084;8.646;2023-02-01T10:49:47;7.00;99.90
54846;DHT22;53889;50.084;8.646;2023-02-01T10:52:20;7.10;99.90
54846;DHT22;53889;50.084;8.646;2023-02-01T10:54:53;7.10;99.90
54846;DHT22;53889;50.084;8.646;2023-02-01T10:57:22;7.10;99.90
54846;DHT22;53889;50.084;8.646;2023-02-01T10:59:51;7.00;99.90
54846;DHT22;53889;50.084;8.646;2023-02-01T11:02:28;7.00;99.90
54846;DHT22;53889;50.084;8.646;2023-02-01T11:05:00;7.60;99.90
54846;DHT22;53889;50.084;8.646;2023-02-01T11:07:30;7.10;99.90
54846;DHT22;53889;50.084;8.646;2023-02-01T11:09:57;7.10;99.90
54846;DHT22;53889;50.084;8.646;2023-02-01T11:12:30;7.00;99.90
54846;DHT22;53889;50.084;8.646;2023-02-01T11:15:00;7.10;99.90
54846;DHT22;53889;50.084;8.646;2023-02-01T11:17:32;7.00;99.90
54846;DHT22;53889;50.084;8.646;2023-02-01T11:20:00;7.10;99.90
54846;DHT22;53889;50.084;8.646;2023-02-01T11:22:29;5.90;99.90
54846;DHT22;53889;50.084;8.646;2023-02-01T11:24:56;7.10;99.90
54846;DHT22;53889;50.084;8.646;2023-02-01T11:27:29;7.10;99.90
54846;DHT22;53889;50.084;8.646;2023-02-01T11:30:00;7.10;99.90
54846;DHT22;53889;50.084;8.646;2023-02-01T11:32:30;7.30;99.90
54846;DHT22;53889;50.084;8.646;2023-02-01T11:35:00;7.10;99.90
54846;DHT22;53889;50.084;8.646;2023-02-01T11:37:31;7.20;99.90
54846;DHT22;53889;50.084;8.646;2023-02-01T11:40:00;7.20;99.90
54846;DHT22;53889;50.084;8.646;2023-02-01T11:42:29;7.20;99.90
54846;DHT22;53889;50.084;8.646;2023-02-01T11:45:19;7.20;99.90
54846;DHT22;53889;50.084;8.646;2023-02-01T11:47:46;7.20;99.90
54846;DHT22;53889;50.084;8.646;2023-02-01T11:50:21;7.30;99.90
54846;DHT22;53889;50.084;8.646;2023-02-01T11:53:07;7.20;99.90
54846;DHT22;53889;50.084;8.646;2023-02-01T11:55:50;7.20;99.90
54846;DHT22;53889;50.084;8.646;2023-02-01T11:58:35;7.70;99.90
54846;DHT22;53889;50.084;8.646;2023-02-01T12:01:16;7.20;99.90
54846;DHT22;53889;50.084;8.646;2023-02-01T12:04:01;7.30;99.90
54846;DHT22;53889;50.084;8.646;2023-02-01T12:06:43;7.40;99.90
54846;DHT22;53889;50.084;8.646;2023-02-01T12:09:25;7.40;99.90
54846;DHT22;53889;50.084;8.646;2023-02-01T12:12:04;7.40;99.90
54846;DHT22;53889;50.084;8.646;2023-02-01T12:14:46;7.40;99.90
54846;DHT22;53889;50.084;8.646;2023-02-01T12:17:34;7.50;99.90
54846;DHT22;53889;50.084;8.646;2023-02-01T12:20:20;7.50;99.90
54846;DHT22;53889;50.084;8.646;2023-02-01T12:22:59;7.30;99.90
54846;DHT22;53889;50.084;8.646;2023-02-01T12:25:39;7.30;99.90
54846;DHT22;53889;50.084;8.646;2023-02-01T12:28:34;7.30;99.90
54846;DHT22;53889;50.084;8.646;2023-02-01T12:31:23;7.30;99.90
54846;DHT22;53889;50.084;8.646;2023-02-01T12:34:07;7.30;99.90
54846;DHT22;53889;50.084;8.646;2023-02-01T12:36:44;7.20;99.90
54846;DHT22;53889;50.084;8.646;2023-02-01T12:39:21;7.40;99.90
54846;DHT22;53889;50.084;8.646;2023-02-01T12:41:55;7.30;99.90
54846;DHT22;53889;50.084;8.646;2023-02-01T12:44:39;7.30;99.90
54846;DHT22;53889;50.084;8.646;2023-02-01T12:47:14;7.30;99.90
54846;DHT22;53889;50.084;8.646;2023-02-01T12:49:48;7.30;99.90
54846;DHT22;53889;50.084;8.646;2023-02-01T12:52:19;7.40;99.90
54846;DHT22;53889;50.084;8.646;2023-02-01T12:54:49;7.40;99.90
54846;DHT22;53889;50.084;8.646;2023-02-01T12:57:24;7.40;99.90
54846;DHT22;53889;50.084;8.646;2023-02-01T12:59:56;7.40;99.90
54846;DHT22;53889;50.084;8.646;2023-02-01T13:02:30;7.40;99.90
54846;DHT22;53889;50.084;8.646;2023-02-01T13:05:12;7.40;99.90
54846;DHT22;53889;50.084;8.646;2023-02-01T13:07:45;7.50;99.90
54846;DHT22;53889;50.084;8.646;2023-02-01T13:10:17;7.40;99.90
54846;DHT22;53889;50.084;8.646;2023-02-01T13:12:51;7.40;99.90
54846;DHT22;53889;50.084;8.646;2023-02-01T13:15:23;7.40;99.90
54846;DHT22;53889;50.084;8.646;2023-02-01T13:17:52;7.50;99.90
54846;DHT22;53889;50.084;8.646;2023-02-01T13:20:24;7.50;99.90
54846;DHT22;53889;50.084;8.646;2023-02-01T13:22:55;7.50;99.90
54846;DHT22;53889;50.084;8.646;2023-02-01T13:25:29;7.60;99.90
54846;DHT22;53889;50.084;8.646;2023-02-01T13:28:04;7.60;99.90
54846;DHT22;53889;50.084;8.646;2023-02-01T13:30:45;7.60;99.90
54846;DHT22;53889;50.084;8.646;2023-02-01T13:33:38;7.60;99.90
54846;DHT22;53889;50.084;8.646;2023-02-01T13:36:43;7.70;99.90
54846;DHT22;53889;50.084;8.646;2023-02-01T13:42:15;7.60;99.90
54846;DHT22;53889;50.084;8.646;2023-02-01T13:44:46;7.70;99.90
54846;DHT22;53889;50.084;8.646;2023-02-01T13:47:21;7.70;99.90
54846;DHT22;53889;50.084;8.646;2023-02-01T13:49:49;7.80;99.90
54846;DHT22;53889;50.084;8.646;2023-02-01T13:52:29;7.70;99.90
54846;DHT22;53889;50.084;8.646;2023-02-01T13:55:03;7.80;99.90
54846;DHT22;53889;50.084;8.646;2023-02-01T13:57:41;7.80;99.90
54846;DHT22;53889;50.084;8.646;2023-02-01T14:00:23;8.30;99.90
54846;DHT22;53889;50.084;8.646;2023-02-01T14:03:19;8.00;99.90
54846;DHT22;53889;50.084;8.646;2023-02-01T14:06:18;7.90;99.90
54846;DHT22;53889;50.084;8.646;2023-02-01T14:09:15;8.00;99.90
54846;DHT22;53889;50.084;8.646;2023-02-01T14:11:45;7.90;99.90
54846;DHT22;53889;50.084;8.646;2023-02-01T14:14:44;7.90;99.90
54846;DHT22;53889;50.084;8.646;2023-02-01T14:17:37;7.90;99.90
54846;DHT22;53889;50.084;8.646;2023-02-01T14:23:27;8.00;99.90
54846;DHT22;53889;50.084;8.646;2023-02-01T14:26:20;8.00;99.90
54846;DHT22;53889;50.084;8.646;2023-02-01T14:28:58;8.10;99.90
54846;DHT22;53889;50.084;8.646;2023-02-01T14:31:49;8.10;99.90
54846;DHT22;53889;50.084;8.646;2023-02-01T14:34:23;8.20;99.90
54846;DHT22;53889;50.084;8.646;2023-02-01T14:36:54;8.30;99.90
54846;DHT22;53889;50.084;8.646;2023-02-01T14:39:26;8.40;99.90
54846;DHT22;53889;50.084;8.646;2023-02-01T14:41:57;8.40;99.90
54846;DHT22;53889;50.084;8.646;2023-02-01T14:44:34;8.40;99.90
54846;DHT22;53889;50.084;8.646;2023-02-01T14:47:28;8.40;99.90
54846;DHT22;53889;50.084;8.646;2023-02-01T14:53:12;7.40;99.90
54846;DHT22;53889;50.084;8.646;2023-02-01T14:55:42;8.40;99.90
54846;DHT22;53889;50.084;8.646;2023-02-01T14:58:16;8.30;99.90
54846;DHT22;53889;50.084;8.646;2023-02-01T15:00:51;8.30;99.90
54846;DHT22;53889;50.084;8.646;2023-02-01T15:03:42;8.40;99.90
54846;DHT22;53889;50.084;8.646;2023-02-01T15:06:31;8.40;99.90
54846;DHT22;53889;50.084;8.646;2023-02-01T15:09:02;8.40;99.90
54846;DHT22;53889;50.084;8.646;2023-02-01T15:11:29;8.40;99.90
54846;DHT22;53889;50.084;8.646;2023-02-01T15:13:56;8.40;99.90
54846;DHT22;53889;50.084;8.646;2023-02-01T15:16:25;8.40;99.90
54846;DHT22;53889;50.084;8.646;2023-02-01T15:19:10;8.40;99.90
54846;DHT22;53889;50.084;8.646;2023-02-01T15:21:46;8.40;99.90
54846;DHT22;53889;50.084;8.646;2023-02-01T15:24:19;8.30;99.90
54846;DHT22;53889;50.084;8.646;2023-02-01T15:26:46;8.30;99.90
54846;DHT22;53889;50.084;8.646;2023-02-01T15:29:14;8.30;99.90
54846;DHT22;53889;50.084;8.646;2023-02-01T15:31:42;8.20;99.90
54846;DHT22;53889;50.084;8.646;2023-02-01T15:34:10;8.30;99.90
54846;DHT22;53889;50.084;8.646;2023-02-01T15:36:37;8.20;99.90
54846;DHT22;53889;50.084;8.646;2023-02-01T15:39:29;8.30;99.90
54846;DHT22;53889;50.084;8.646;2023-02-01T15:41:57;8.20;99.90
54846;DHT22;53889;50.084;8.646;2023-02-01T15:44:32;8.20;99.90
54846;DHT22;53889;50.084;8.646;2023-02-01T15:47:04;8.20;99.90
54846;DHT22;53889;50.084;8.646;2023-02-01T15:49:36;8.20;99.90
54846;DHT22;53889;50.084;8.646;2023-02-01T15:52:08;8.10;99.90
54846;DHT22;53889;50.084;8.646;2023-02-01T15:54:43;8.10;99.90
54846;DHT22;53889;50.084;8.646;2023-02-01T15:57:19;8.10;99.90
54846;DHT22;53889;50.084;8.646;2023-02-01T15:59:46;8.00;99.90
54846;DHT22;53889;50.084;8.646;2023-02-01T16:02:27;8.00;99.90
54846;DHT22;53889;50.084;8.646;2023-02-01T16:04:54;8.00;99.90
54846;DHT22;53889;50.084;8.646;2023-02-01T16:07:26;8.10;99.90
54846;DHT22;53889;50.084;8.646;2023-02-01T16:09:57;8.00;99.90
54846;DHT22;53889;50.084;8.646;2023-02-01T16:12:31;8.00;99.90
54846;DHT22;53889;50.084;8.646;2023-02-01T16:15:00;8.00;99.90
54846;DHT22;53889;50.084;8.646;2023-02-01T16:17:27;8.00;99.90
54846;DHT22;53889;50.084;8.646;2023-02-01T16:19:54;8.10;99.90
54846;DHT22;53889;50.084;8.646;2023-02-01T16:22:21;8.10;99.90
54846;DHT22;53889;50.084;8.646;2023-02-01T16:24:47;8.10;99.90